sensor_id;sensor_type;location;lat;lon;timestamp;temperature;humidity
1411;DHT22;700;51.906;8.404;2022-08-03T00:02:01;22.50;99.90
1411;DHT22;700;51.906;8.404;2022-08-03T00:07:03;22.60;99.90
1411;DHT22;700;51.906;8.404;2022-08-03T00:12:04;22.50;99.90
1411;DHT22;700;51.906;8.404;2022-08-03T00:17:07;22.50;99.90
1411;DHT22;700;51.906;8.404;2022-08-03T00:22:10;22.40;99.90
1411;DHT22;700;51.906;8.404;2022-08-03T00:27:11;22.60;99.90
1411;DHT22;700;51.906;8.404;2022-08-03T00:32:16;22.10;99.90
1411;DHT22;700;51.906;8.404;2022-08-03T00:37:16;22.30;99.90
1411;DHT22;700;51.906;8.404;2022-08-03T00:42:17;22.10;99.90
1411;DHT22;700;51.906;8.404;2022-08-03T00:47:18;22.10;99.90
1411;DHT22;700;51.906;8.404;2022-08-03T00:52:19;22.20;99.90
1411;DHT22;700;51.906;8.404;2022-08-03T00:57:22;22.20;99.90
1411;DHT22;700;51.906;8.404;2022-08-03T01:02:27;22.20;99.90
1411;DHT22;700;51.906;8.404;2022-08-03T01:13:06;22.10;99.90
1411;DHT22;700;51.906;8.404;2022-08-03T01:18:31;22.10;99.90
1411;DHT22;700;51.906;8.404;2022-08-03T01:24:17;22.00;99.90
1411;DHT22;700;51.906;8.404;2022-08-03T01:34:35;21.70;99.90
1411;DHT22;700;51.906;8.404;2022-08-03T01:39:41;21.80;99.90
1411;DHT22;700;51.906;8.404;2022-08-03T01:44:43;21.80;99.90
1411;DHT22;700;51.906;8.404;2022-08-03T01:49:44;21.80;99.90
1411;DHT22;700;51.906;8.404;2022-08-03T01:54:48;21.80;99.90
1411;DHT22;700;51.906;8.404;2022-08-03T01:59:51;21.80;99.90
1411;DHT22;700;51.906;8.404;2022-08-03T02:04:54;21.70;99.90
1411;DHT22;700;51.906;8.404;2022-08-03T02:10:00;21.70;99.90
1411;DHT22;700;51.906;8.404;2022-08-03T02:15:05;21.40;99.90
1411;DHT22;700;51.906;8.404;2022-08-03T02:20:11;21.50;99.90
1411;DHT22;700;51.906;8.404;2022-08-03T02:25:14;21.40;99.90
1411;DHT22;700;51.906;8.404;2022-08-03T02:30:15;21.30;99.90
1411;DHT22;700;51.906;8.404;2022-08-03T02:35:20;21.30;99.90
1411;DHT22;700;51.906;8.404;2022-08-03T02:40:23;21.40;99.90
1411;DHT22;700;51.906;8.404;2022-08-03T02:45:26;21.40;99.90
1411;DHT22;700;51.906;8.404;2022-08-03T02:50:30;21.40;99.90
1411;DHT22;700;51.906;8.404;2022-08-03T02:55:36;21.40;99.90
1411;DHT22;700;51.906;8.404;2022-08-03T03:00:39;21.40;99.90
1411;DHT22;700;51.906;8.404;2022-08-03T03:05:42;21.20;99.90
1411;DHT22;700;51.906;8.404;2022-08-03T03:10:44;21.20;99.90
1411;DHT22;700;51.906;8.404;2022-08-03T03:15:48;21.10;99.90
1411;DHT22;700;51.906;8.404;2022-08-03T03:20:53;21.20;99.90
1411;DHT22;700;51.906;8.404;2022-08-03T03:25:55;21.00;99.90
1411;DHT22;700;51.906;8.404;2022-08-03T03:30:58;21.10;99.90
1411;DHT22;700;51.906;8.404;2022-08-03T03:36:00;20.90;99.90
1411;DHT22;700;51.906;8.404;2022-08-03T03:41:04;21.00;99.90
1411;DHT22;700;51.906;8.404;2022-08-03T03:46:07;20.80;99.90
1411;DHT22;700;51.906;8.404;2022-08-03T03:51:08;20.70;99.90
1411;DHT22;700;51.906;8.404;2022-08-03T03:56:11;20.70;99.90
1411;DHT22;700;51.906;8.404;2022-08-03T04:01:15;20.70;99.90
1411;DHT22;700;51.906;8.404;2022-08-03T04:06:16;20.80;99.90
1411;DHT22;700;51.906;8.404;2022-08-03T04:11:39;20.80;99.90
1411;DHT22;700;51.906;8.404;2022-08-03T04:16:49;20.70;99.90
1411;DHT22;700;51.906;8.404;2022-08-03T04:21:56;20.70;99.90
1411;DHT22;700;51.906;8.404;2022-08-03T04:27:03;20.90;99.90
1411;DHT22;700;51.906;8.404;2022-08-03T04:32:07;20.90;99.90
1411;DHT22;700;51.906;8.404;2022-08-03T04:37:21;21.10;99.90
1411;DHT22;700;51.906;8.404;2022-08-03T04:42:24;21.10;99.90
1411;DHT22;700;51.906;8.404;2022-08-03T04:47:32;21.20;99.90
1411;DHT22;700;51.906;8.404;2022-08-03T04:52:36;21.10;99.90
1411;DHT22;700;51.906;8.404;2022-08-03T04:57:36;21.10;99.90
1411;DHT22;700;51.906;8.404;2022-08-03T05:02:37;21.10;99.90
1411;DHT22;700;51.906;8.404;2022-08-03T05:07:38;21.30;99.90
1411;DHT22;700;51.906;8.404;2022-08-03T05:12:39;21.40;99.90
1411;DHT22;700;51.906;8.404;2022-08-03T05:17:42;21.60;99.90
1411;DHT22;700;51.906;8.404;2022-08-03T05:22:43;21.80;99.90
1411;DHT22;700;51.906;8.404;2022-08-03T05:27:44;22.00;99.90
1411;DHT22;700;51.906;8.404;2022-08-03T05:32:49;21.90;99.90
1411;DHT22;700;51.906;8.404;2022-08-03T05:37:50;22.10;99.90
1411;DHT22;700;51.906;8.404;2022-08-03T05:42:55;22.20;99.90
1411;DHT22;700;51.906;8.404;2022-08-03T05:47:56;22.30;99.90
1411;DHT22;700;51.906;8.404;2022-08-03T05:52:59;22.50;99.90
1411;DHT22;700;51.906;8.404;2022-08-03T05:58:01;22.70;99.90
1411;DHT22;700;51.906;8.404;2022-08-03T06:03:05;22.80;99.90
1411;DHT22;700;51.906;8.404;2022-08-03T06:08:08;22.90;99.90
1411;DHT22;700;51.906;8.404;2022-08-03T06:13:09;23.10;99.90
1411;DHT22;700;51.906;8.404;2022-08-03T06:18:12;23.00;99.90
1411;DHT22;700;51.906;8.404;2022-08-03T06:23:17;23.00;99.90
1411;DHT22;700;51.906;8.404;2022-08-03T06:28:18;23.10;99.90
1411;DHT22;700;51.906;8.404;2022-08-03T06:33:21;23.30;99.90
1411;DHT22;700;51.906;8.404;2022-08-03T06:38:24;23.60;99.90
1411;DHT22;700;51.906;8.404;2022-08-03T06:43:25;23.70;99.90
1411;DHT22;700;51.906;8.404;2022-08-03T06:48:29;24.00;99.90
1411;DHT22;700;51.906;8.404;2022-08-03T06:53:29;24.20;99.90
1411;DHT22;700;51.906;8.404;2022-08-03T06:58:30;24.50;99.90
1411;DHT22;700;51.906;8.404;2022-08-03T07:03:33;24.60;99.90
1411;DHT22;700;51.906;8.404;2022-08-03T07:08:33;24.90;99.90
1411;DHT22;700;51.906;8.404;2022-08-03T07:13:34;25.00;99.90
1411;DHT22;700;51.906;8.404;2022-08-03T07:18:38;25.20;99.90
1411;DHT22;700;51.906;8.404;2022-08-03T07:23:39;25.30;99.90
1411;DHT22;700;51.906;8.404;2022-08-03T07:28:40;25.50;99.90
1411;DHT22;700;51.906;8.404;2022-08-03T07:33:40;25.80;99.90
1411;DHT22;700;51.906;8.404;2022-08-03T07:38:43;25.90;99.90
1411;DHT22;700;51.906;8.404;2022-08-03T07:43:44;26.30;99.90
1411;DHT22;700;51.906;8.404;2022-08-03T07:48:45;26.60;99.90
1411;DHT22;700;51.906;8.404;2022-08-03T07:53:46;26.50;99.90
1411;DHT22;700;51.906;8.404;2022-08-03T07:58:51;26.70;99.90
1411;DHT22;700;51.906;8.404;2022-08-03T08:03:52;26.90;99.90
1411;DHT22;700;51.906;8.404;2022-08-03T08:08:52;27.40;99.90
1411;DHT22;700;51.906;8.404;2022-08-03T08:13:54;27.50;99.90
1411;DHT22;700;51.906;8.404;2022-08-03T08:18:55;27.40;99.90
1411;DHT22;700;51.906;8.404;2022-08-03T08:23:58;27.70;99.90
1411;DHT22;700;51.906;8.404;2022-08-03T08:28:59;27.90;99.90
1411;DHT22;700;51.906;8.404;2022-08-03T08:34:00;28.10;99.90
1411;DHT22;700;51.906;8.404;2022-08-03T08:39:04;28.40;99.90
1411;DHT22;700;51.906;8.404;2022-08-03T08:44:07;28.50;99.90
1411;DHT22;700;51.906;8.404;2022-08-03T08:49:10;28.80;99.90
1411;DHT22;700;51.906;8.404;2022-08-03T08:54:14;29.10;99.90
1411;DHT22;700;51.906;8.404;2022-08-03T08:59:17;29.40;99.90
1411;DHT22;700;51.906;8.404;2022-08-03T09:04:18;29.60;99.90
1411;DHT22;700;51.906;8.404;2022-08-03T09:09:19;30.10;99.90
1411;DHT22;700;51.906;8.404;2022-08-03T09:14:19;30.00;99.90
1411;DHT22;700;51.906;8.404;2022-08-03T09:19:20;30.30;99.90
1411;DHT22;700;51.906;8.404;2022-08-03T09:24:24;30.40;99.90
1411;DHT22;700;51.906;8.404;2022-08-03T09:29:31;30.80;99.90
1411;DHT22;700;51.906;8.404;2022-08-03T09:34:32;30.90;99.90
1411;DHT22;700;51.906;8.404;2022-08-03T09:39:38;31.30;99.90
1411;DHT22;700;51.906;8.404;2022-08-03T09:49:59;39.50;82.70
1411;DHT22;700;51.906;8.404;2022-08-03T09:55:13;42.40;60.90
1411;DHT22;700;51.906;8.404;2022-08-03T10:00:16;44.60;50.00
1411;DHT22;700;51.906;8.404;2022-08-03T10:05:31;46.90;43.00
1411;DHT22;700;51.906;8.404;2022-08-03T10:10:44;48.30;38.50
1411;DHT22;700;51.906;8.404;2022-08-03T10:15:46;51.80;33.80
1411;DHT22;700;51.906;8.404;2022-08-03T10:20:51;52.10;30.30
1411;DHT22;700;51.906;8.404;2022-08-03T10:26:02;52.10;31.30
1411;DHT22;700;51.906;8.404;2022-08-03T10:31:08;47.80;29.80
1411;DHT22;700;51.906;8.404;2022-08-03T10:36:10;51.60;30.30
1411;DHT22;700;51.906;8.404;2022-08-03T10:41:13;53.30;30.00
1411;DHT22;700;51.906;8.404;2022-08-03T10:46:16;50.70;29.00
1411;DHT22;700;51.906;8.404;2022-08-03T10:51:21;49.50;30.50
1411;DHT22;700;51.906;8.404;2022-08-03T11:01:52;48.20;33.00
1411;DHT22;700;51.906;8.404;2022-08-03T11:12:33;52.70;28.50
1411;DHT22;700;51.906;8.404;2022-08-03T11:17:37;49.30;30.10
1411;DHT22;700;51.906;8.404;2022-08-03T11:22:48;48.90;31.30
1411;DHT22;700;51.906;8.404;2022-08-03T11:28:43;51.90;29.50
1411;DHT22;700;51.906;8.404;2022-08-03T11:33:38;51.40;28.30
1411;DHT22;700;51.906;8.404;2022-08-03T11:39:11;47.30;31.60
1411;DHT22;700;51.906;8.404;2022-08-03T11:44:41;48.40;30.10
1411;DHT22;700;51.906;8.404;2022-08-03T11:49:53;53.20;28.20
1411;DHT22;700;51.906;8.404;2022-08-03T11:54:54;56.40;25.80
1411;DHT22;700;51.906;8.404;2022-08-03T11:59:57;59.20;24.20
1411;DHT22;700;51.906;8.404;2022-08-03T12:05:00;60.70;23.10
1411;DHT22;700;51.906;8.404;2022-08-03T12:10:12;60.00;21.60
1411;DHT22;700;51.906;8.404;2022-08-03T12:15:13;55.20;24.10
1411;DHT22;700;51.906;8.404;2022-08-03T12:20:21;52.70;25.30
1411;DHT22;700;51.906;8.404;2022-08-03T12:25:24;53.80;25.70
1411;DHT22;700;51.906;8.404;2022-08-03T12:30:26;53.30;25.90
1411;DHT22;700;51.906;8.404;2022-08-03T12:35:27;54.10;25.30
1411;DHT22;700;51.906;8.404;2022-08-03T12:40:31;56.50;23.60
1411;DHT22;700;51.906;8.404;2022-08-03T12:45:34;58.30;22.90
1411;DHT22;700;51.906;8.404;2022-08-03T12:50:37;56.50;22.70
1411;DHT22;700;51.906;8.404;2022-08-03T12:55:39;55.80;23.10
1411;DHT22;700;51.906;8.404;2022-08-03T13:00:54;56.40;23.20
1411;DHT22;700;51.906;8.404;2022-08-03T13:05:55;57.10;22.80
1411;DHT22;700;51.906;8.404;2022-08-03T13:10:56;56.40;23.20
1411;DHT22;700;51.906;8.404;2022-08-03T13:15:57;56.30;23.10
1411;DHT22;700;51.906;8.404;2022-08-03T13:20:58;56.80;23.20
1411;DHT22;700;51.906;8.404;2022-08-03T13:26:00;53.90;24.50
1411;DHT22;700;51.906;8.404;2022-08-03T13:31:05;51.60;26.30
1411;DHT22;700;51.906;8.404;2022-08-03T13:36:06;49.20;28.10
1411;DHT22;700;51.906;8.404;2022-08-03T13:41:06;50.70;26.40
1411;DHT22;700;51.906;8.404;2022-08-03T13:46:07;50.20;27.50
1411;DHT22;700;51.906;8.404;2022-08-03T13:51:08;51.80;26.50
1411;DHT22;700;51.906;8.404;2022-08-03T13:56:11;51.40;27.20
1411;DHT22;700;51.906;8.404;2022-08-03T14:01:14;50.90;26.90
1411;DHT22;700;51.906;8.404;2022-08-03T14:06:15;48.50;28.50
1411;DHT22;700;51.906;8.404;2022-08-03T14:11:16;44.50;32.00
1411;DHT22;700;51.906;8.404;2022-08-03T14:16:17;42.30;35.40
1411;DHT22;700;51.906;8.404;2022-08-03T14:21:18;42.40;35.80
1411;DHT22;700;51.906;8.404;2022-08-03T14:26:19;41.20;36.40
1411;DHT22;700;51.906;8.404;2022-08-03T14:31:19;40.80;36.70
1411;DHT22;700;51.906;8.404;2022-08-03T14:36:20;40.60;36.80
1411;DHT22;700;51.906;8.404;2022-08-03T14:41:21;40.20;37.50
1411;DHT22;700;51.906;8.404;2022-08-03T14:46:24;40.60;38.00
1411;DHT22;700;51.906;8.404;2022-08-03T14:51:25;41.00;38.00
1411;DHT22;700;51.906;8.404;2022-08-03T14:56:25;40.70;36.80
1411;DHT22;700;51.906;8.404;2022-08-03T15:01:26;40.20;37.60
1411;DHT22;700;51.906;8.404;2022-08-03T15:06:27;39.50;37.30
1411;DHT22;700;51.906;8.404;2022-08-03T15:11:27;38.80;38.40
1411;DHT22;700;51.906;8.404;2022-08-03T15:16:28;37.70;40.00
1411;DHT22;700;51.906;8.404;2022-08-03T15:21:29;37.20;42.30
1411;DHT22;700;51.906;8.404;2022-08-03T15:26:29;36.80;42.20
1411;DHT22;700;51.906;8.404;2022-08-03T15:31:30;36.30;42.10
1411;DHT22;700;51.906;8.404;2022-08-03T15:36:36;36.50;42.90
1411;DHT22;700;51.906;8.404;2022-08-03T15:41:36;36.50;43.20
1411;DHT22;700;51.906;8.404;2022-08-03T15:46:37;36.70;44.60
1411;DHT22;700;51.906;8.404;2022-08-03T15:51:38;36.70;44.60
1411;DHT22;700;51.906;8.404;2022-08-03T15:56:38;36.80;44.20
1411;DHT22;700;51.906;8.404;2022-08-03T16:01:41;36.80;45.60
1411;DHT22;700;51.906;8.404;2022-08-03T16:06:41;37.00;44.50
1411;DHT22;700;51.906;8.404;2022-08-03T16:11:44;37.30;45.70
1411;DHT22;700;51.906;8.404;2022-08-03T16:16:45;37.40;46.00
1411;DHT22;700;51.906;8.404;2022-08-03T16:21:45;37.50;43.80
1411;DHT22;700;51.906;8.404;2022-08-03T16:26:46;37.50;43.20
1411;DHT22;700;51.906;8.404;2022-08-03T16:31:47;37.50;44.10
1411;DHT22;700;51.906;8.404;2022-08-03T16:36:50;37.10;43.00
1411;DHT22;700;51.906;8.404;2022-08-03T16:41:51;36.60;44.30
1411;DHT22;700;51.906;8.404;2022-08-03T16:46:52;36.80;44.60
1411;DHT22;700;51.906;8.404;2022-08-03T16:51:55;37.00;43.60
1411;DHT22;700;51.906;8.404;2022-08-03T16:56:55;37.00;44.20
1411;DHT22;700;51.906;8.404;2022-08-03T17:02:01;37.20;45.10
1411;DHT22;700;51.906;8.404;2022-08-03T17:07:02;37.00;43.60
1411;DHT22;700;51.906;8.404;2022-08-03T17:12:04;36.70;45.20
1411;DHT22;700;51.906;8.404;2022-08-03T17:17:27;36.40;44.60
1411;DHT22;700;51.906;8.404;2022-08-03T17:22:33;36.30;46.30
1411;DHT22;700;51.906;8.404;2022-08-03T17:27:40;36.20;45.70
1411;DHT22;700;51.906;8.404;2022-08-03T17:32:46;36.00;47.90
1411;DHT22;700;51.906;8.404;2022-08-03T17:37:47;35.70;46.40
1411;DHT22;700;51.906;8.404;2022-08-03T17:42:48;35.50;48.40
1411;DHT22;700;51.906;8.404;2022-08-03T17:47:51;35.10;50.10
1411;DHT22;700;51.906;8.404;2022-08-03T17:53:06;34.70;49.70
1411;DHT22;700;51.906;8.404;2022-08-03T17:58:18;34.70;50.20
1411;DHT22;700;51.906;8.404;2022-08-03T18:03:43;34.60;50.40
1411;DHT22;700;51.906;8.404;2022-08-03T18:08:50;34.30;50.90
1411;DHT22;700;51.906;8.404;2022-08-03T18:14:05;33.90;52.90
1411;DHT22;700;51.906;8.404;2022-08-03T18:19:06;33.70;53.00
1411;DHT22;700;51.906;8.404;2022-08-03T18:24:11;33.50;53.20
1411;DHT22;700;51.906;8.404;2022-08-03T18:29:12;33.20;54.20
1411;DHT22;700;51.906;8.404;2022-08-03T18:34:15;33.00;54.90
1411;DHT22;700;51.906;8.404;2022-08-03T18:39:18;32.90;55.00
1411;DHT22;700;51.906;8.404;2022-08-03T18:44:19;32.70;56.10
1411;DHT22;700;51.906;8.404;2022-08-03T18:54:25;32.10;57.60
1411;DHT22;700;51.906;8.404;2022-08-03T19:04:53;31.70;58.70
1411;DHT22;700;51.906;8.404;2022-08-03T19:10:09;31.60;59.20
1411;DHT22;700;51.906;8.404;2022-08-03T19:15:13;31.40;60.10
1411;DHT22;700;51.906;8.404;2022-08-03T19:20:18;31.20;61.10
1411;DHT22;700;51.906;8.404;2022-08-03T19:25:20;31.10;61.70
1411;DHT22;700;51.906;8.404;2022-08-03T19:30:23;30.90;62.90
1411;DHT22;700;51.906;8.404;2022-08-03T19:35:46;30.70;67.20
1411;DHT22;700;51.906;8.404;2022-08-03T19:40:48;30.50;67.30
1411;DHT22;700;51.906;8.404;2022-08-03T19:45:51;30.30;67.80
1411;DHT22;700;51.906;8.404;2022-08-03T19:50:59;30.10;70.50
1411;DHT22;700;51.906;8.404;2022-08-03T19:56:09;29.90;75.40
1411;DHT22;700;51.906;8.404;2022-08-03T20:01:11;29.70;80.40
1411;DHT22;700;51.906;8.404;2022-08-03T20:06:12;29.50;84.40
1411;DHT22;700;51.906;8.404;2022-08-03T20:11:14;29.40;89.70
1411;DHT22;700;51.906;8.404;2022-08-03T20:16:15;29.20;91.10
1411;DHT22;700;51.906;8.404;2022-08-03T20:21:15;29.20;93.60
1411;DHT22;700;51.906;8.404;2022-08-03T20:26:20;28.90;94.10
1411;DHT22;700;51.906;8.404;2022-08-03T20:31:21;28.80;95.60
1411;DHT22;700;51.906;8.404;2022-08-03T20:36:23;28.60;97.40
1411;DHT22;700;51.906;8.404;2022-08-03T20:41:26;28.50;99.90
1411;DHT22;700;51.906;8.404;2022-08-03T20:46:27;28.40;99.90
1411;DHT22;700;51.906;8.404;2022-08-03T20:51:28;28.40;99.90
1411;DHT22;700;51.906;8.404;2022-08-03T20:56:32;28.20;99.90
1411;DHT22;700;51.906;8.404;2022-08-03T21:01:34;28.10;99.90
1411;DHT22;700;51.906;8.404;2022-08-03T21:06:44;28.00;99.90
1411;DHT22;700;51.906;8.404;2022-08-03T21:11:49;27.80;99.90
1411;DHT22;700;51.906;8.404;2022-08-03T21:16:52;27.70;99.90
1411;DHT22;700;51.906;8.404;2022-08-03T21:21:56;27.70;99.90
1411;DHT22;700;51.906;8.404;2022-08-03T21:27:00;27.60;99.90
1411;DHT22;700;51.906;8.404;2022-08-03T21:32:04;27.50;99.90
1411;DHT22;700;51.906;8.404;2022-08-03T21:37:06;27.30;99.90
1411;DHT22;700;51.906;8.404;2022-08-03T21:42:07;27.30;99.90
1411;DHT22;700;51.906;8.404;2022-08-03T21:47:12;27.10;99.90
1411;DHT22;700;51.906;8.404;2022-08-03T21:52:17;27.10;99.90
1411;DHT22;700;51.906;8.404;2022-08-03T21:57:27;27.00;99.90
1411;DHT22;700;51.906;8.404;2022-08-03T22:02:35;26.90;99.90
1411;DHT22;700;51.906;8.404;2022-08-03T22:07:38;26.80;99.90
1411;DHT22;700;51.906;8.404;2022-08-03T22:12:39;26.70;99.90
1411;DHT22;700;51.906;8.404;2022-08-03T22:17:41;26.60;99.90
1411;DHT22;700;51.906;8.404;2022-08-03T22:22:45;26.50;99.90
1411;DHT22;700;51.906;8.404;2022-08-03T22:27:46;26.40;99.90
1411;DHT22;700;51.906;8.404;2022-08-03T22:32:48;26.50;99.90
1411;DHT22;700;51.906;8.404;2022-08-03T22:37:57;26.50;99.90
1411;DHT22;700;51.906;8.404;2022-08-03T22:43:00;26.60;99.90
1411;DHT22;700;51.906;8.404;2022-08-03T22:48:02;26.40;99.90
1411;DHT22;700;51.906;8.404;2022-08-03T22:53:05;26.40;99.90
1411;DHT22;700;51.906;8.404;2022-08-03T22:58:07;26.60;99.90
1411;DHT22;700;51.906;8.404;2022-08-03T23:03:10;26.50;99.90
1411;DHT22;700;51.906;8.404;2022-08-03T23:08:14;26.50;99.90
1411;DHT22;700;51.906;8.404;2022-08-03T23:13:20;26.60;99.90
1411;DHT22;700;51.906;8.404;2022-08-03T23:18:24;26.50;99.90
1411;DHT22;700;51.906;8.404;2022-08-03T23:23:28;26.50;99.90
1411;DHT22;700;51.906;8.404;2022-08-03T23:28:30;26.40;99.90
1411;DHT22;700;51.906;8.404;2022-08-03T23:33:35;26.30;99.90
1411;DHT22;700;51.906;8.404;2022-08-03T23:38:39;26.30;99.90
1411;DHT22;700;51.906;8.404;2022-08-03T23:43:45;26.10;99.90
1411;DHT22;700;51.906;8.404;2022-08-03T23:48:46;26.20;99.90
1411;DHT22;700;51.906;8.404;2022-08-03T23:53:53;26.20;99.90
1411;DHT22;700;51.906;8.404;2022-08-03T23:59:17;26.10;99.90
